Time;durP1;ratioP1;P1;durP2;ratioP2;P2;SDS_P1;SDS_P2;PMS_P1;PMS_P2;Temp;Humidity;BMP_temperature;BMP_pressure;BME280_temperature;BME280_humidity;BME280_pressure;Samples;Min_cycle;Max_cycle;Signal;HPM_P1;HPM_P2
2022/12/31 00:00:39;;;;;;;3.92;2.42;;;11.80;99.90;;;;;;5091411;28;20060;-68
2022/12/31 00:03:08;;;;;;;3.97;2.25;;;11.80;99.90;;;;;;5079826;28;20056;-69
2022/12/31 00:05:35;;;;;;;5.85;3.15;;;11.80;99.90;;;;;;5081783;28;20550;-69
2022/12/31 00:08:01;;;;;;;5.07;2.20;;;11.80;99.90;;;;;;5082106;28;20539;-69
2022/12/31 00:10:28;;;;;;;3.78;2.53;;;11.80;99.90;;;;;;5086567;28;20541;-69
2022/12/31 00:12:54;;;;;;;5.63;2.28;;;11.70;99.90;;;;;;5088609;28;20151;-69
2022/12/31 00:15:20;;;;;;;4.10;2.63;;;11.70;99.90;;;;;;5089216;28;20048;-71
2022/12/31 00:17:45;;;;;;;4.18;2.70;;;11.70;99.90;;;;;;5094053;28;20109;-69
2022/12/31 00:20:11;;;;;;;4.78;2.92;;;11.70;99.90;;;;;;5079622;28;20074;-70
2022/12/31 00:22:37;;;;;;;3.40;2.50;;;11.70;99.90;;;;;;5084811;28;20040;-70
2022/12/31 00:25:03;;;;;;;4.80;2.50;;;11.60;99.90;;;;;;5059516;28;20038;-69
2022/12/31 00:27:30;;;;;;;4.15;2.50;;;11.60;99.90;;;;;;5062546;28;20048;-68
2022/12/31 00:29:55;;;;;;;4.20;2.50;;;11.60;99.90;;;;;;5090562;28;20094;-69
2022/12/31 00:32:21;;;;;;;6.25;2.85;;;11.60;99.90;;;;;;5092180;28;20080;-70
2022/12/31 00:34:47;;;;;;;5.57;2.92;;;11.60;99.90;;;;;;5080557;28;20090;-69
2022/12/31 00:37:13;;;;;;;4.95;2.70;;;11.60;99.90;;;;;;5076590;28;20089;-70
2022/12/31 00:39:38;;;;;;;7.05;2.47;;;11.60;99.90;;;;;;5079489;28;20066;-69
2022/12/31 00:42:04;;;;;;;5.30;2.60;;;11.70;99.90;;;;;;5085223;28;20040;-69
2022/12/31 00:44:30;;;;;;;3.97;2.60;;;11.70;99.90;;;;;;5076579;28;20044;-68
2022/12/31 00:46:55;;;;;;;4.32;2.60;;;11.70;99.90;;;;;;5085753;28;20040;-69
2022/12/31 00:49:21;;;;;;;4.47;2.40;;;11.70;99.90;;;;;;5083231;28;20040;-69
2022/12/31 00:51:47;;;;;;;5.07;2.38;;;11.70;99.90;;;;;;5086987;28;20075;-69
2022/12/31 00:54:13;;;;;;;3.70;2.22;;;11.70;99.90;;;;;;5085029;28;20137;-70
2022/12/31 00:56:39;;;;;;;4.15;2.55;;;11.70;99.90;;;;;;5090354;28;20039;-69
2022/12/31 00:59:04;;;;;;;4.25;2.50;;;11.70;99.90;;;;;;5076955;28;20036;-70
2022/12/31 01:01:34;;;;;;;3.95;2.42;;;11.70;99.90;;;;;;5087895;28;20040;-69
2022/12/31 01:04:09;;;;;;;4.95;2.97;;;11.80;99.90;;;;;;5096291;28;20533;-69
2022/12/31 01:06:35;;;;;;;4.85;2.50;;;11.80;99.90;;;;;;5091500;28;20127;-69
2022/12/31 01:09:02;;;;;;;4.90;3.17;;;11.80;99.90;;;;;;5091781;28;20040;-69
2022/12/31 01:11:28;;;;;;;7.32;2.95;;;11.80;99.90;;;;;;5081424;28;20072;-69
2022/12/31 01:14:01;;;;;;;4.60;3.15;;;11.80;99.90;;;;;;5084765;28;20040;-70
2022/12/31 01:16:33;;;;;;;5.18;2.97;;;11.80;99.90;;;;;;5092559;28;20049;-70
2022/12/31 01:19:01;;;;;;;4.80;3.05;;;11.80;99.90;;;;;;5082123;28;20048;-69
2022/12/31 01:21:28;;;;;;;5.55;3.65;;;11.80;99.90;;;;;;5076392;28;20055;-69
2022/12/31 01:23:54;;;;;;;7.05;3.63;;;11.70;99.90;;;;;;5093868;28;20401;-69
2022/12/31 01:26:20;;;;;;;7.28;3.90;;;11.70;99.90;;;;;;5081356;28;20028;-70
2022/12/31 01:28:46;;;;;;;6.55;4.25;;;11.70;99.90;;;;;;5089683;28;20111;-70
2022/12/31 01:31:14;;;;;;;3.92;3.08;;;11.70;99.90;;;;;;5081063;28;20044;-70
2022/12/31 01:33:41;;;;;;;7.90;4.30;;;11.70;99.90;;;;;;5077837;28;20041;-69
2022/12/31 01:36:15;;;;;;;6.57;3.58;;;11.70;99.90;;;;;;5079090;28;20051;-70
2022/12/31 01:38:41;;;;;;;5.32;3.45;;;11.70;99.90;;;;;;5065721;28;20076;-69
2022/12/31 01:41:11;;;;;;;4.80;3.50;;;11.70;99.90;;;;;;5086536;28;20135;-68
2022/12/31 01:43:46;;;;;;;5.78;3.38;;;11.70;99.90;;;;;;5088101;28;20044;-71
2022/12/31 01:46:25;;;;;;;4.63;3.13;;;11.70;99.90;;;;;;5076562;28;20514;-69
2022/12/31 01:48:56;;;;;;;6.63;3.30;;;11.60;99.90;;;;;;5089974;28;20090;-70
2022/12/31 01:51:25;;;;;;;3.38;2.67;;;11.60;99.90;;;;;;5087816;28;20043;-69
2022/12/31 01:53:51;;;;;;;5.43;2.72;;;11.60;99.90;;;;;;5078479;28;20221;-69
2022/12/31 01:56:18;;;;;;;4.93;3.10;;;11.60;99.90;;;;;;5088539;28;20039;-69
2022/12/31 01:58:48;;;;;;;5.80;3.13;;;11.60;99.90;;;;;;5076669;28;20061;-69
2022/12/31 02:01:25;;;;;;;3.92;2.55;;;11.60;99.90;;;;;;5075750;28;20532;-68
2022/12/31 02:03:52;;;;;;;4.47;2.50;;;11.60;99.90;;;;;;5085434;28;20040;-68
2022/12/31 02:06:25;;;;;;;5.13;2.65;;;11.50;99.90;;;;;;5084553;28;20049;-69
2022/12/31 02:08:51;;;;;;;6.10;3.22;;;11.60;99.90;;;;;;5081932;28;20028;-70
2022/12/31 02:11:23;;;;;;;3.42;2.35;;;11.50;99.90;;;;;;5084050;28;20051;-70
2022/12/31 02:13:49;;;;;;;3.63;2.60;;;11.50;99.90;;;;;;5080968;28;20048;-70
2022/12/31 02:16:44;;;;;;;3.78;2.10;;;11.50;99.90;;;;;;5083290;28;20137;-69
2022/12/31 02:19:22;;;;;;;3.78;2.22;;;11.50;99.90;;;;;;5069131;28;20060;-69
2022/12/31 02:22:13;;;;;;;3.97;2.13;;;11.40;99.90;;;;;;5094616;28;20123;-69
2022/12/31 02:24:55;;;;;;;2.78;1.30;;;11.40;99.90;;;;;;5066264;28;20194;-69
2022/12/31 02:27:32;;;;;;;3.83;1.70;;;11.40;99.90;;;;;;5058938;28;20068;-70
2022/12/31 02:30:13;;;;;;;3.20;2.17;;;11.40;99.90;;;;;;5063301;28;20041;-68
2022/12/31 02:32:41;;;;;;;4.63;1.88;;;11.30;99.90;;;;;;5083247;28;20051;-70
2022/12/31 02:35:31;;;;;;;2.13;1.52;;;11.30;99.90;;;;;;5085386;28;20051;-70
2022/12/31 02:38:06;;;;;;;2.85;1.35;;;11.30;99.90;;;;;;5076606;28;20040;-68
2022/12/31 02:40:34;;;;;;;3.10;1.20;;;11.30;99.90;;;;;;5077556;28;20036;-69
2022/12/31 02:43:00;;;;;;;1.83;1.20;;;11.30;99.90;;;;;;5086475;28;20040;-69
2022/12/31 02:45:34;;;;;;;1.42;0.90;;;11.30;99.90;;;;;;5085007;28;20033;-70
2022/12/31 02:48:28;;;;;;;3.45;0.80;;;11.20;99.90;;;;;;5082246;28;20036;-70
2022/12/31 02:51:06;;;;;;;1.40;0.70;;;11.20;99.90;;;;;;5069734;28;20041;-71
2022/12/31 02:54:01;;;;;;;2.20;0.90;;;11.20;99.90;;;;;;5081873;28;20051;-70
2022/12/31 02:57:18;;;;;;;1.42;0.80;;;11.10;99.90;;;;;;5085242;28;20055;-70
2022/12/31 03:02:43;;;;;;;2.10;1.00;;;11.10;99.90;;;;;;5063385;28;20061;-70
2022/12/31 03:05:10;;;;;;;2.10;0.73;;;11.00;99.90;;;;;;5093314;28;20059;-69
2022/12/31 03:07:39;;;;;;;1.40;0.60;;;11.00;99.90;;;;;;5094693;28;20048;-69
2022/12/31 03:10:05;;;;;;;2.63;0.70;;;11.00;99.90;;;;;;5089334;28;20142;-68
2022/12/31 03:12:45;;;;;;;2.05;0.70;;;11.00;99.90;;;;;;5088193;28;20048;-69
2022/12/31 03:15:23;;;;;;;1.55;0.63;;;11.00;99.90;;;;;;5092487;28;20044;-68
2022/12/31 03:17:49;;;;;;;2.15;0.70;;;10.90;99.90;;;;;;5098497;28;20041;-68
2022/12/31 03:23:03;;;;;;;2.15;0.90;;;11.00;99.90;;;;;;5088575;28;20067;-68
2022/12/31 03:25:34;;;;;;;1.73;0.90;;;10.90;99.90;;;;;;5087178;28;20040;-67
2022/12/31 03:28:06;;;;;;;3.53;1.27;;;10.90;99.90;;;;;;5080482;28;20044;-68
2022/12/31 03:30:33;;;;;;;2.67;1.10;;;10.90;99.90;;;;;;5081358;28;20040;-68
2022/12/31 03:33:00;;;;;;;1.92;0.95;;;10.90;99.90;;;;;;5087151;28;20044;-68
2022/12/31 03:35:28;;;;;;;1.98;1.10;;;10.90;99.90;;;;;;5081664;28;20040;-68
2022/12/31 03:37:55;;;;;;;1.90;1.00;;;10.90;99.90;;;;;;5079548;28;20052;-68
2022/12/31 03:40:23;;;;;;;3.67;1.30;;;10.90;99.90;;;;;;5100964;28;20533;-68
2022/12/31 03:42:48;;;;;;;4.03;1.38;;;10.90;99.90;;;;;;5080641;28;20680;-68
2022/12/31 03:45:16;;;;;;;3.88;1.40;;;10.90;99.90;;;;;;5061871;28;20098;-69
2022/12/31 03:47:42;;;;;;;3.60;1.42;;;10.90;99.90;;;;;;5081068;28;20117;-68
2022/12/31 03:50:09;;;;;;;2.15;1.40;;;10.90;99.90;;;;;;5078941;28;20052;-68
2022/12/31 03:52:35;;;;;;;2.97;1.40;;;10.90;99.90;;;;;;5081218;28;20052;-68
2022/12/31 03:55:01;;;;;;;2.33;1.30;;;10.90;99.90;;;;;;5077314;28;20352;-68
2022/12/31 03:57:27;;;;;;;3.13;1.23;;;10.90;99.90;;;;;;5085645;28;20610;-67
2022/12/31 03:59:53;;;;;;;3.92;1.60;;;10.90;99.90;;;;;;5077976;28;20036;-68
2022/12/31 04:02:19;;;;;;;2.92;1.30;;;11.00;99.90;;;;;;5084608;28;20062;-68
2022/12/31 04:04:45;;;;;;;2.65;1.40;;;11.00;99.90;;;;;;5096256;28;20036;-67
2022/12/31 04:07:10;;;;;;;2.65;1.50;;;11.00;99.90;;;;;;5089333;28;20048;-68
2022/12/31 04:09:36;;;;;;;2.35;1.30;;;11.00;99.90;;;;;;5087111;28;20066;-68
2022/12/31 04:12:02;;;;;;;2.22;1.30;;;11.00;99.90;;;;;;5080497;28;20044;-68
2022/12/31 04:14:27;;;;;;;2.97;1.50;;;11.00;99.90;;;;;;5089074;28;20497;-69
2022/12/31 04:16:53;;;;;;;4.40;1.40;;;11.00;99.90;;;;;;5079017;28;20543;-68
2022/12/31 04:19:19;;;;;;;2.72;1.52;;;11.00;99.90;;;;;;5079812;28;20049;-67
2022/12/31 04:21:44;;;;;;;3.00;1.70;;;11.00;99.90;;;;;;5078571;28;20056;-68
2022/12/31 04:24:10;;;;;;;2.72;1.58;;;11.10;99.90;;;;;;5089353;28;20084;-69
2022/12/31 04:26:36;;;;;;;2.92;1.50;;;11.10;99.90;;;;;;5089394;28;20118;-67
2022/12/31 04:29:02;;;;;;;2.17;1.40;;;11.10;99.90;;;;;;5087229;28;20040;-69
2022/12/31 04:31:28;;;;;;;2.40;1.60;;;11.10;99.90;;;;;;5084381;28;20032;-69
2022/12/31 04:33:54;;;;;;;3.05;1.50;;;11.10;99.90;;;;;;5080617;28;20134;-68
2022/12/31 04:36:20;;;;;;;4.05;1.58;;;11.10;99.90;;;;;;5076492;28;20427;-68
2022/12/31 04:38:45;;;;;;;2.95;1.67;;;11.10;99.90;;;;;;5080957;28;20044;-69
2022/12/31 04:41:17;;;;;;;2.95;1.40;;;11.10;99.90;;;;;;5079429;28;20514;-69
2022/12/31 04:43:50;;;;;;;2.90;1.40;;;11.10;99.90;;;;;;5084317;28;20503;-69
2022/12/31 04:46:18;;;;;;;4.40;1.42;;;11.10;99.90;;;;;;5095327;28;20551;-69
2022/12/31 04:48:44;;;;;;;3.65;1.40;;;11.10;99.90;;;;;;5082398;28;20041;-69
2022/12/31 04:51:10;;;;;;;3.22;1.33;;;11.00;99.90;;;;;;5075769;28;20048;-69
2022/12/31 04:53:36;;;;;;;1.92;1.00;;;11.00;99.90;;;;;;5078927;28;20084;-69
2022/12/31 04:56:02;;;;;;;2.42;1.20;;;10.90;99.90;;;;;;5088782;28;20089;-69
2022/12/31 04:58:28;;;;;;;3.35;1.00;;;10.90;99.90;;;;;;5088717;28;20049;-69
2022/12/31 05:00:55;;;;;;;2.53;0.95;;;10.90;99.90;;;;;;5078110;28;20056;-69
2022/12/31 05:03:22;;;;;;;2.70;0.90;;;10.90;99.90;;;;;;5075892;28;20136;-69
2022/12/31 05:05:49;;;;;;;2.55;1.00;;;10.90;99.90;;;;;;5077167;28;20056;-69
2022/12/31 05:08:16;;;;;;;2.45;0.95;;;10.90;99.90;;;;;;5077958;28;20053;-69
2022/12/31 05:10:47;;;;;;;2.47;0.90;;;10.80;99.90;;;;;;5090554;28;20049;-69
2022/12/31 05:13:13;;;;;;;1.88;1.00;;;10.80;99.90;;;;;;5081296;28;20060;-69
2022/12/31 05:15:39;;;;;;;2.13;1.00;;;10.80;99.90;;;;;;5093177;28;20541;-68
2022/12/31 05:18:06;;;;;;;1.70;1.00;;;10.80;99.90;;;;;;5091532;28;20090;-68
2022/12/31 05:20:32;;;;;;;3.05;0.90;;;10.80;99.90;;;;;;5075129;28;20044;-68
2022/12/31 05:22:58;;;;;;;1.67;1.00;;;10.80;99.90;;;;;;5083291;28;20059;-69
2022/12/31 05:25:23;;;;;;;1.90;1.10;;;10.80;99.90;;;;;;5086429;28;20048;-68
2022/12/31 05:27:49;;;;;;;1.83;0.90;;;10.80;99.90;;;;;;5095214;28;20033;-68
2022/12/31 05:30:17;;;;;;;1.75;0.98;;;10.80;99.90;;;;;;5094235;28;20046;-69
2022/12/31 05:32:43;;;;;;;3.13;1.10;;;10.80;99.90;;;;;;5079221;28;20140;-68
2022/12/31 05:35:09;;;;;;;2.03;1.08;;;10.80;99.90;;;;;;5099348;28;20044;-69
2022/12/31 05:37:35;;;;;;;3.15;1.10;;;10.70;99.90;;;;;;5078303;28;20071;-68
2022/12/31 05:40:01;;;;;;;2.95;1.30;;;10.70;99.90;;;;;;5083638;28;20044;-68
2022/12/31 05:42:26;;;;;;;2.83;1.70;;;10.70;99.90;;;;;;5077569;28;20539;-67
2022/12/31 05:44:52;;;;;;;3.53;1.90;;;10.70;99.90;;;;;;5091443;28;20044;-68
2022/12/31 05:47:18;;;;;;;4.63;2.13;;;10.70;99.90;;;;;;5094652;28;20042;-68
2022/12/31 05:49:44;;;;;;;4.22;2.40;;;10.70;99.90;;;;;;5091916;28;20067;-69
2022/12/31 05:52:09;;;;;;;4.13;2.80;;;10.70;99.90;;;;;;5077581;28;20049;-68
2022/12/31 05:54:35;;;;;;;3.97;2.38;;;10.80;99.90;;;;;;5075011;28;20041;-68
2022/12/31 05:57:03;;;;;;;4.78;2.60;;;10.80;99.90;;;;;;5086515;28;20047;-68
2022/12/31 05:59:29;;;;;;;3.80;2.70;;;10.80;99.90;;;;;;5077644;28;20048;-69
2022/12/31 06:01:55;;;;;;;3.35;2.13;;;10.80;99.90;;;;;;5078310;28;20064;-68
2022/12/31 06:04:24;;;;;;;3.75;2.10;;;10.90;99.90;;;;;;5083771;28;20101;-69
2022/12/31 06:06:50;;;;;;;4.40;2.70;;;10.90;99.90;;;;;;5085985;28;20052;-69
2022/12/31 06:09:17;;;;;;;3.08;2.15;;;10.90;99.90;;;;;;5079577;28;20054;-69
2022/12/31 06:11:43;;;;;;;2.97;2.08;;;10.90;99.90;;;;;;5076465;28;20379;-70
2022/12/31 06:14:10;;;;;;;3.83;2.38;;;11.00;99.90;;;;;;5084544;28;20119;-69
2022/12/31 06:16:35;;;;;;;3.42;2.22;;;11.00;99.90;;;;;;5089305;28;20557;-69
2022/12/31 06:19:01;;;;;;;3.28;1.95;;;11.00;99.90;;;;;;5088371;28;20044;-69
2022/12/31 06:21:28;;;;;;;3.75;2.20;;;11.00;99.90;;;;;;5063810;28;20059;-69
2022/12/31 06:23:54;;;;;;;2.92;1.88;;;11.00;99.90;;;;;;5079373;28;20041;-70
2022/12/31 06:26:20;;;;;;;3.95;2.17;;;11.00;99.90;;;;;;5088509;28;20045;-69
2022/12/31 06:28:46;;;;;;;3.42;1.75;;;10.90;99.90;;;;;;5088354;28;20150;-70
2022/12/31 06:31:13;;;;;;;3.78;1.70;;;11.00;99.90;;;;;;5089056;28;20068;-70
2022/12/31 06:33:39;;;;;;;3.25;1.70;;;10.90;99.90;;;;;;5079373;28;20052;-70
2022/12/31 06:36:07;;;;;;;2.88;1.95;;;10.90;99.90;;;;;;5082101;28;20557;-70
2022/12/31 06:38:35;;;;;;;2.53;1.58;;;10.90;99.90;;;;;;5102085;28;20044;-69
2022/12/31 06:41:05;;;;;;;3.17;1.90;;;10.90;99.90;;;;;;5081168;28;20051;-70
2022/12/31 06:43:32;;;;;;;3.17;1.60;;;10.90;99.90;;;;;;5089821;28;20036;-68
2022/12/31 06:46:06;;;;;;;2.55;1.70;;;10.80;99.90;;;;;;5100254;28;20048;-69
2022/12/31 06:48:32;;;;;;;2.85;1.80;;;10.80;99.90;;;;;;5084086;28;20497;-69
2022/12/31 06:51:06;;;;;;;3.40;1.85;;;10.80;99.90;;;;;;5080111;28;20519;-68
2022/12/31 06:53:32;;;;;;;4.07;1.73;;;10.80;99.90;;;;;;5080040;28;20060;-68
2022/12/31 06:56:04;;;;;;;3.35;1.90;;;10.80;99.90;;;;;;5078811;28;20399;-68
2022/12/31 06:58:30;;;;;;;2.72;1.88;;;10.80;99.90;;;;;;5087346;28;20048;-69
2022/12/31 07:01:22;;;;;;;2.97;1.77;;;10.90;99.90;;;;;;5090530;28;20059;-70
2022/12/31 07:03:56;;;;;;;2.75;1.73;;;10.80;99.90;;;;;;5093937;28;20177;-70
2022/12/31 07:06:43;;;;;;;3.03;1.90;;;10.80;99.90;;;;;;5081760;28;20594;-69
2022/12/31 07:09:25;;;;;;;3.70;1.80;;;10.80;99.90;;;;;;5073255;28;20056;-70
2022/12/31 07:12:03;;;;;;;3.33;1.80;;;10.80;99.90;;;;;;5090565;28;20044;-70
2022/12/31 07:14:51;;;;;;;3.50;1.60;;;10.80;99.90;;;;;;5090711;28;20388;-70
2022/12/31 07:18:16;;;;;;;3.72;1.48;;;10.70;99.90;;;;;;5088218;28;20075;-69
2022/12/31 07:20:42;;;;;;;3.70;1.70;;;10.80;99.90;;;;;;5036353;28;20064;-70
2022/12/31 07:23:08;;;;;;;3.95;2.08;;;10.80;99.90;;;;;;5056272;28;20540;-69
2022/12/31 07:25:37;;;;;;;3.05;2.13;;;10.80;99.90;;;;;;5075790;28;20056;-70
2022/12/31 07:28:13;;;;;;;3.80;2.85;;;10.80;99.90;;;;;;5096174;28;20044;-69
2022/12/31 07:31:06;;;;;;;3.55;1.92;;;10.80;99.90;;;;;;5075608;28;20438;-68
2022/12/31 07:33:32;;;;;;;3.75;2.33;;;10.80;99.90;;;;;;5077928;28;20048;-69
2022/12/31 07:36:15;;;;;;;3.72;1.80;;;10.80;99.90;;;;;;5080053;28;20071;-69
2022/12/31 07:38:58;;;;;;;3.05;1.50;;;10.80;99.90;;;;;;5080288;28;20049;-68
2022/12/31 07:41:48;;;;;;;3.67;1.65;;;10.80;99.90;;;;;;5078302;28;20075;-70
2022/12/31 07:44:52;;;;;;;2.45;1.40;;;10.90;99.90;;;;;;5079220;28;20104;-70
2022/12/31 07:47:21;;;;;;;3.05;1.20;;;10.90;99.90;;;;;;5079168;28;20065;-69
2022/12/31 07:49:47;;;;;;;2.58;1.60;;;10.90;99.90;;;;;;5078490;28;20036;-69
2022/12/31 07:52:13;;;;;;;2.28;1.70;;;11.00;99.90;;;;;;5081844;28;20044;-71
2022/12/31 07:54:39;;;;;;;3.22;1.48;;;11.00;99.90;;;;;;5080713;28;20079;-70
2022/12/31 07:57:05;;;;;;;2.70;1.40;;;11.10;99.90;;;;;;5093692;28;20044;-70
2022/12/31 07:59:36;;;;;;;2.47;1.40;;;11.10;99.90;;;;;;5084441;28;20043;-69
2022/12/31 08:02:20;;;;;;;2.83;1.60;;;11.10;99.90;;;;;;5080039;28;20032;-70
2022/12/31 08:05:19;;;;;;;2.63;1.67;;;11.10;99.90;;;;;;5080522;28;20053;-70
2022/12/31 08:07:54;;;;;;;4.05;2.10;;;11.10;99.90;;;;;;5075075;28;20052;-70
2022/12/31 08:10:26;;;;;;;3.00;1.70;;;11.20;99.90;;;;;;5074540;28;20071;-70
2022/12/31 08:13:01;;;;;;;3.05;1.83;;;11.20;99.90;;;;;;5065979;28;20052;-70
2022/12/31 08:15:27;;;;;;;3.50;2.20;;;11.20;99.90;;;;;;5077273;28;20056;-70
2022/12/31 08:17:53;;;;;;;3.28;2.13;;;11.20;99.90;;;;;;5078728;28;20060;-69
2022/12/31 08:20:19;;;;;;;3.30;2.05;;;11.20;99.90;;;;;;5057452;28;20389;-71
2022/12/31 08:23:13;;;;;;;2.95;1.70;;;11.20;99.90;;;;;;5092343;28;20052;-71
2022/12/31 08:26:02;;;;;;;3.50;2.05;;;11.30;99.90;;;;;;5064234;28;20054;-70
2022/12/31 08:28:53;;;;;;;3.33;2.30;;;11.30;99.90;;;;;;5042306;28;20542;-72
2022/12/31 08:31:31;;;;;;;3.08;1.92;;;11.40;99.90;;;;;;5058976;28;20053;-70
2022/12/31 08:34:28;;;;;;;3.83;2.42;;;11.40;99.90;;;;;;5040699;28;20370;-70
2022/12/31 08:37:14;;;;;;;3.00;1.73;;;11.50;99.90;;;;;;5057738;28;20077;-72
2022/12/31 08:39:58;;;;;;;3.55;2.20;;;11.50;99.90;;;;;;5059637;28;20049;-70
2022/12/31 08:42:51;;;;;;;3.47;2.15;;;11.60;99.90;;;;;;5057079;28;20098;-70
2022/12/31 08:45:45;;;;;;;3.10;2.15;;;11.60;99.90;;;;;;5069461;28;20104;-70
2022/12/31 08:48:31;;;;;;;3.13;1.85;;;11.70;99.90;;;;;;5079595;28;20049;-71
2022/12/31 08:50:58;;;;;;;2.80;1.65;;;11.70;99.90;;;;;;5058437;28;20055;-71
2022/12/31 08:53:24;;;;;;;3.22;1.70;;;11.80;99.90;;;;;;5058672;28;20554;-71
2022/12/31 08:55:56;;;;;;;2.83;1.80;;;11.80;99.90;;;;;;5056732;28;20059;-70
2022/12/31 08:58:31;;;;;;;2.95;1.85;;;11.90;99.90;;;;;;5067433;28;20036;-70
2022/12/31 09:00:58;;;;;;;3.10;2.00;;;11.90;99.90;;;;;;5072648;28;20036;-71
2022/12/31 09:03:42;;;;;;;2.63;1.90;;;12.00;99.90;;;;;;5071660;28;20040;-72
2022/12/31 09:06:47;;;;;;;3.15;2.00;;;12.10;99.90;;;;;;5069090;28;20095;-71
2022/12/31 09:09:12;;;;;;;3.53;2.25;;;12.10;99.90;;;;;;5063840;28;20052;-72
2022/12/31 09:12:15;;;;;;;3.30;2.20;;;12.20;99.90;;;;;;5066411;28;20041;-73
2022/12/31 09:14:47;;;;;;;3.72;2.38;;;12.20;99.90;;;;;;5056894;28;20060;-72
2022/12/31 09:17:35;;;;;;;2.95;1.85;;;12.30;99.90;;;;;;5066392;28;20045;-71
2022/12/31 09:20:01;;;;;;;2.50;1.70;;;12.40;99.90;;;;;;5088932;28;20041;-73
2022/12/31 09:22:27;;;;;;;2.38;1.60;;;12.40;99.90;;;;;;5057116;28;20045;-71
2022/12/31 09:24:53;;;;;;;2.20;1.40;;;12.50;99.90;;;;;;5055641;28;20052;-73
2022/12/31 09:27:39;;;;;;;2.70;1.52;;;12.50;99.90;;;;;;5096283;28;20133;-73
2022/12/31 09:30:07;;;;;;;2.15;1.50;;;12.50;99.90;;;;;;5063516;28;20116;-73
2022/12/31 09:32:58;;;;;;;2.13;1.35;;;12.50;99.90;;;;;;5064379;28;20137;-74
2022/12/31 09:35:51;;;;;;;2.20;1.23;;;12.50;99.90;;;;;;5064551;28;20048;-72
2022/12/31 09:38:54;;;;;;;2.63;1.13;;;12.60;99.90;;;;;;5063816;28;20143;-72
2022/12/31 09:41:48;;;;;;;1.30;0.80;;;12.60;99.90;;;;;;5058946;28;20049;-73
2022/12/31 09:44:38;;;;;;;1.98;0.90;;;12.70;99.90;;;;;;5065264;28;20049;-72
2022/12/31 09:47:16;;;;;;;1.58;0.70;;;12.80;99.90;;;;;;5063322;28;20056;-72
2022/12/31 09:50:12;;;;;;;1.27;0.70;;;12.80;99.90;;;;;;5060014;28;20476;-74
2022/12/31 09:52:47;;;;;;;0.73;0.40;;;12.90;99.90;;;;;;5052781;28;20131;-73
2022/12/31 09:55:29;;;;;;;1.60;0.60;;;12.90;99.90;;;;;;5057147;28;20076;-72
2022/12/31 09:57:55;;;;;;;1.63;0.60;;;13.00;99.90;;;;;;5062696;28;20407;-72
2022/12/31 10:00:25;;;;;;;1.63;0.60;;;13.00;99.90;;;;;;5080074;28;20041;-72
2022/12/31 10:03:15;;;;;;;1.13;0.63;;;13.00;99.90;;;;;;5092215;28;20056;-73
2022/12/31 10:06:10;;;;;;;0.90;0.50;;;13.00;99.90;;;;;;5078148;28;20053;-72
2022/12/31 10:09:00;;;;;;;1.38;0.88;;;12.90;99.90;;;;;;5070719;28;20048;-73
2022/12/31 10:11:42;;;;;;;2.40;0.80;;;13.00;99.90;;;;;;5067943;28;20052;-72
2022/12/31 10:14:32;;;;;;;1.65;0.60;;;13.10;99.90;;;;;;5071065;28;20052;-73
2022/12/31 10:17:04;;;;;;;1.10;0.68;;;13.10;99.90;;;;;;5066711;28;20052;-72
2022/12/31 10:19:54;;;;;;;1.58;0.85;;;13.20;99.90;;;;;;5042435;28;20142;-74
2022/12/31 10:22:44;;;;;;;2.25;0.60;;;13.20;99.90;;;;;;5062099;28;20056;-74
2022/12/31 10:25:13;;;;;;;1.33;0.60;;;13.20;99.90;;;;;;5094236;28;20060;-73
2022/12/31 10:27:51;;;;;;;1.00;0.50;;;13.30;99.90;;;;;;5066036;28;20077;-73
2022/12/31 10:30:20;;;;;;;1.15;0.70;;;13.30;99.90;;;;;;5094195;28;20049;-74
2022/12/31 10:32:55;;;;;;;1.27;0.55;;;13.30;99.90;;;;;;5058208;28;20037;-71
2022/12/31 10:35:34;;;;;;;1.08;0.60;;;13.40;99.90;;;;;;5061143;28;20087;-73
2022/12/31 10:38:27;;;;;;;0.90;0.60;;;13.40;99.90;;;;;;5046358;28;20044;-71
2022/12/31 10:41:34;;;;;;;1.30;0.68;;;13.40;99.90;;;;;;5094930;28;20041;-72
2022/12/31 10:44:19;;;;;;;1.33;0.68;;;13.40;99.90;;;;;;5066036;28;20060;-73
2022/12/31 10:47:03;;;;;;;0.90;0.50;;;13.30;99.90;;;;;;5060127;28;20033;-75
2022/12/31 10:50:08;;;;;;;1.00;0.60;;;13.10;99.90;;;;;;5073026;28;20465;-72
2022/12/31 10:52:55;;;;;;;1.52;0.70;;;13.40;99.90;;;;;;5072386;28;20056;-72
2022/12/31 10:55:27;;;;;;;1.08;0.57;;;13.40;99.90;;;;;;5058658;28;20451;-73
2022/12/31 10:58:08;;;;;;;1.75;0.70;;;13.40;99.90;;;;;;5058408;28;20492;-72
2022/12/31 11:01:05;;;;;;;2.22;0.80;;;13.40;99.90;;;;;;5066851;28;20063;-74
2022/12/31 11:04:01;;;;;;;1.83;0.93;;;13.40;99.90;;;;;;5074917;28;20113;-72
2022/12/31 11:07:08;;;;;;;3.50;1.10;;;13.30;99.90;;;;;;5078089;28;20108;-75
2022/12/31 11:10:02;;;;;;;1.80;0.80;;;13.30;99.90;;;;;;5076855;28;20052;-72
2022/12/31 11:12:55;;;;;;;2.33;1.02;;;13.40;99.90;;;;;;5070648;28;20082;-74
2022/12/31 11:15:20;;;;;;;2.15;1.10;;;13.40;99.90;;;;;;5077294;28;20052;-72
2022/12/31 11:17:55;;;;;;;2.92;0.90;;;13.30;99.90;;;;;;5068664;28;20049;-71
2022/12/31 11:21:05;;;;;;;2.33;1.10;;;13.30;99.90;;;;;;5068209;28;20534;-72
2022/12/31 11:23:54;;;;;;;1.85;1.00;;;13.30;99.90;;;;;;5065173;28;20071;-72
2022/12/31 11:27:11;;;;;;;2.70;1.42;;;13.30;99.90;;;;;;5069523;28;20057;-73
2022/12/31 11:29:55;;;;;;;3.27;1.10;;;13.30;99.90;;;;;;5079651;28;20123;-72
2022/12/31 11:32:59;;;;;;;1.27;0.77;;;13.30;99.90;;;;;;5076669;28;20049;-73
2022/12/31 11:35:56;;;;;;;3.40;1.15;;;13.40;99.90;;;;;;5046548;28;20104;-73
2022/12/31 11:38:37;;;;;;;4.97;1.40;;;13.50;99.90;;;;;;5067326;28;20102;-73
2022/12/31 11:41:24;;;;;;;2.33;1.13;;;13.50;99.90;;;;;;5072717;28;20052;-73
2022/12/31 11:44:01;;;;;;;;;;;13.50;99.90;;;;;;5070055;28;20052;-72
2022/12/31 11:47:06;;;;;;;1.73;0.95;;;13.50;99.90;;;;;;5058832;28;19964;-72
2022/12/31 11:49:41;;;;;;;2.25;1.10;;;13.60;99.90;;;;;;5069010;28;20101;-72
2022/12/31 11:52:12;;;;;;;2.88;1.20;;;13.60;99.90;;;;;;5079591;28;20113;-72
2022/12/31 11:54:53;;;;;;;2.63;1.10;;;13.60;99.90;;;;;;5072431;28;20040;-72
2022/12/31 11:57:33;;;;;;;4.55;1.20;;;13.60;99.90;;;;;;5060328;28;20048;-72
2022/12/31 12:00:17;;;;;;;2.72;1.40;;;13.60;99.90;;;;;;5077941;28;20076;-70
2022/12/31 12:03:00;;;;;;;2.88;2.08;;;13.60;99.90;;;;;;5063347;28;20060;-72
2022/12/31 12:05:26;;;;;;;3.40;1.80;;;13.70;99.90;;;;;;5093164;28;20037;-73
2022/12/31 12:07:53;;;;;;;3.00;1.98;;;13.60;99.90;;;;;;5068042;28;20655;-71
2022/12/31 12:10:28;;;;;;;3.33;1.80;;;13.70;99.90;;;;;;5077032;28;20044;-71
2022/12/31 12:12:57;;;;;;;2.85;2.08;;;13.70;99.90;;;;;;5061039;28;20396;-73
2022/12/31 12:15:27;;;;;;;2.83;1.48;;;13.80;99.90;;;;;;5071192;28;20111;-73
2022/12/31 12:17:55;;;;;;;3.33;1.45;;;13.90;99.90;;;;;;5077162;28;20045;-73
2022/12/31 12:20:30;;;;;;;1.70;1.27;;;14.00;99.90;;;;;;5087870;28;20049;-75
2022/12/31 12:22:58;;;;;;;2.17;1.30;;;14.00;99.90;;;;;;5059634;28;20087;-73
2022/12/31 12:25:26;;;;;;;2.03;1.30;;;14.10;99.90;;;;;;5063586;28;20084;-73
2022/12/31 12:27:53;;;;;;;2.22;1.60;;;14.10;99.90;;;;;;5064807;28;20426;-73
2022/12/31 12:30:26;;;;;;;2.50;1.67;;;14.10;99.90;;;;;;5090353;28;20053;-74
2022/12/31 12:33:00;;;;;;;2.20;1.70;;;14.00;99.90;;;;;;5058263;28;20094;-73
2022/12/31 12:35:30;;;;;;;2.75;1.27;;;13.90;99.90;;;;;;5060352;28;20060;-74
2022/12/31 12:38:19;;;;;;;2.28;1.38;;;13.80;99.90;;;;;;5067219;28;20403;-72
2022/12/31 12:40:58;;;;;;;2.42;1.20;;;13.80;99.90;;;;;;5058023;28;20067;-72
2022/12/31 12:43:33;;;;;;;3.20;1.52;;;13.80;99.90;;;;;;5069759;28;20096;-73
2022/12/31 12:46:32;;;;;;;2.75;1.45;;;13.80;99.90;;;;;;5052925;28;20063;-71
2022/12/31 12:48:58;;;;;;;3.17;1.45;;;13.80;99.90;;;;;;5059701;28;20040;-72
2022/12/31 12:51:51;;;;;;;2.42;1.27;;;13.70;99.90;;;;;;5089567;28;20044;-72
2022/12/31 12:54:25;;;;;;;2.78;1.38;;;13.60;99.90;;;;;;5055875;28;20516;-71
2022/12/31 12:57:15;;;;;;;2.20;1.20;;;13.50;99.90;;;;;;5071440;28;20135;-76
2022/12/31 12:59:59;;;;;;;3.45;1.35;;;13.40;99.90;;;;;;5055910;28;20041;-73
2022/12/31 13:02:39;;;;;;;2.50;1.20;;;13.30;99.90;;;;;;5057456;28;20067;-72
2022/12/31 13:05:27;;;;;;;2.47;1.38;;;13.30;99.90;;;;;;5059557;28;20085;-74
2022/12/31 13:08:16;;;;;;;1.92;1.35;;;13.30;99.90;;;;;;5063788;28;20053;-74
2022/12/31 13:11:02;;;;;;;2.75;1.45;;;13.30;99.90;;;;;;5070151;28;20056;-72
2022/12/31 13:13:54;;;;;;;2.60;1.40;;;13.20;99.90;;;;;;5067808;28;20059;-74
2022/12/31 13:16:30;;;;;;;2.88;1.80;;;13.20;99.90;;;;;;5056884;28;20052;-78
2022/12/31 13:19:14;;;;;;;2.38;1.40;;;13.30;99.90;;;;;;5053000;28;20177;-78
2022/12/31 13:22:02;;;;;;;3.63;1.17;;;13.20;99.90;;;;;;5071624;28;20052;-78
2022/12/31 13:24:55;;;;;;;2.63;1.40;;;13.30;99.90;;;;;;5073838;28;20041;-76
2022/12/31 13:27:33;;;;;;;3.35;1.30;;;13.30;99.90;;;;;;5058643;28;20512;-73
2022/12/31 13:30:03;;;;;;;2.75;1.45;;;13.40;99.90;;;;;;5057517;28;20451;-80
2022/12/31 13:32:47;;;;;;;2.03;1.20;;;13.20;99.90;;;;;;5074693;28;20109;-73